Time;durP1;ratioP1;P1;durP2;ratioP2;P2;SDS_P1;SDS_P2;PMS_P1;PMS_P2;Temp;Humidity;BMP_temperature;BMP_pressure;BME280_temperature;BME280_humidity;BME280_pressure;Samples;Min_cycle;Max_cycle;Signal;HPM_P1;HPM_P2
2023/06/14 00:00:35;;;;;;;12.18;4.85;;;17.20;99.90;;;;;;4994136;28;20026;-76
2023/06/14 00:09:37;;;;;;;10.63;5.20;;;17.20;99.90;;;;;;4951484;28;20047;-75
2023/06/14 00:12:04;;;;;;;10.13;5.53;;;17.10;99.90;;;;;;4954770;28;20035;-77
2023/06/14 00:14:29;;;;;;;12.40;5.93;;;17.10;99.90;;;;;;4954354;28;20087;-75
2023/06/14 00:16:58;;;;;;;8.52;4.80;;;17.10;99.90;;;;;;4959381;28;20046;-75
2023/06/14 00:19:25;;;;;;;10.10;5.32;;;17.10;99.90;;;;;;4954436;28;20019;-78
2023/06/14 00:21:51;;;;;;;8.85;4.28;;;17.10;99.90;;;;;;4954822;28;20501;-76
2023/06/14 00:24:17;;;;;;;11.65;4.78;;;17.20;99.90;;;;;;4954427;28;20117;-75
2023/06/14 00:26:43;;;;;;;8.48;4.47;;;17.20;99.90;;;;;;4954897;28;20495;-76
2023/06/14 00:29:09;;;;;;;7.88;4.50;;;17.20;99.90;;;;;;4954411;29;21695;-75
2023/06/14 00:31:35;;;;;;;9.85;5.45;;;17.20;99.90;;;;;;4937824;29;20023;-76
2023/06/14 00:34:01;;;;;;;9.68;4.65;;;17.10;99.90;;;;;;4937241;28;20447;-77
2023/06/14 00:36:27;;;;;;;7.78;4.85;;;17.20;99.90;;;;;;4953379;28;20049;-76
2023/06/14 00:38:53;;;;;;;8.20;4.70;;;17.20;99.90;;;;;;4954161;28;20046;-76
2023/06/14 00:41:19;;;;;;;10.82;4.80;;;17.20;99.90;;;;;;4954870;28;20102;-75
2023/06/14 00:43:44;;;;;;;11.77;5.65;;;17.20;99.90;;;;;;4963211;28;20026;-76
2023/06/14 00:46:10;;;;;;;8.65;4.53;;;17.10;99.90;;;;;;4941592;29;20027;-76
2023/06/14 00:48:38;;;;;;;9.98;4.60;;;17.10;99.90;;;;;;4954431;28;20542;-77
2023/06/14 00:51:06;;;;;;;9.90;4.80;;;17.10;99.90;;;;;;4954252;28;20110;-76
2023/06/14 00:53:35;;;;;;;8.60;4.82;;;17.10;99.90;;;;;;4937357;29;20083;-77
2023/06/14 00:56:01;;;;;;;10.90;4.97;;;17.10;99.90;;;;;;4957913;28;20019;-76
2023/06/14 00:58:28;;;;;;;9.52;4.82;;;17.00;99.90;;;;;;4963926;28;20042;-76
2023/06/14 01:00:54;;;;;;;12.80;4.80;;;17.00;99.90;;;;;;4940476;28;20529;-76
2023/06/14 01:03:21;;;;;;;9.02;5.53;;;16.90;99.90;;;;;;4963540;28;20035;-76
2023/06/14 01:05:48;;;;;;;11.48;4.82;;;16.90;99.90;;;;;;4955774;28;20030;-76
2023/06/14 01:08:34;;;;;;;8.50;4.93;;;16.90;99.90;;;;;;4962556;28;20151;-75
2023/06/14 01:11:16;;;;;;;10.45;5.03;;;16.90;99.90;;;;;;4937128;29;20082;-76
2023/06/14 01:13:45;;;;;;;9.85;5.32;;;16.90;99.90;;;;;;4952805;28;20033;-76
2023/06/14 01:16:12;;;;;;;10.07;4.75;;;16.80;99.90;;;;;;4953983;28;20019;-76
2023/06/14 01:18:38;;;;;;;8.40;5.28;;;16.90;99.90;;;;;;4953926;28;20035;-77
2023/06/14 01:21:05;;;;;;;10.45;5.75;;;16.80;99.90;;;;;;4953728;28;20031;-76
2023/06/14 01:23:32;;;;;;;10.90;5.50;;;16.70;99.90;;;;;;4954054;28;20475;-76
2023/06/14 01:26:03;;;;;;;12.27;5.78;;;16.70;99.90;;;;;;4954003;28;20402;-76
2023/06/14 01:28:35;;;;;;;10.23;5.50;;;16.70;99.90;;;;;;4937109;29;20054;-76
2023/06/14 01:31:05;;;;;;;9.60;5.30;;;16.70;99.90;;;;;;4920301;29;20035;-76
2023/06/14 01:33:34;;;;;;;10.55;5.45;;;16.60;99.90;;;;;;4951853;28;20035;-76
2023/06/14 01:36:02;;;;;;;9.13;5.25;;;16.60;99.90;;;;;;4952316;29;20032;-76
2023/06/14 01:38:31;;;;;;;10.30;6.35;;;16.60;99.90;;;;;;4936795;29;20035;-76
2023/06/14 01:40:59;;;;;;;7.78;5.25;;;16.50;99.90;;;;;;4936785;29;20426;-76
2023/06/14 01:43:27;;;;;;;9.57;5.93;;;16.50;99.90;;;;;;4953881;28;20027;-76
2023/06/14 01:45:54;;;;;;;11.98;6.40;;;16.50;99.90;;;;;;4953834;29;20024;-75
2023/06/14 01:48:20;;;;;;;11.18;6.63;;;16.50;99.90;;;;;;4953722;28;20150;-75
2023/06/14 01:50:51;;;;;;;12.32;6.20;;;16.50;99.90;;;;;;4953782;28;20034;-76
2023/06/14 01:53:17;;;;;;;10.90;6.43;;;16.40;99.90;;;;;;4953765;28;20046;-76
2023/06/14 01:55:44;;;;;;;14.43;6.07;;;16.30;99.90;;;;;;4953669;29;20110;-77
2023/06/14 01:58:11;;;;;;;11.27;6.38;;;16.30;99.90;;;;;;4936226;29;20039;-75
2023/06/14 02:00:37;;;;;;;10.73;5.50;;;16.30;99.90;;;;;;4952130;28;20033;-75
2023/06/14 02:03:04;;;;;;;12.57;6.53;;;16.30;99.90;;;;;;4936446;29;20402;-76
2023/06/14 02:05:30;;;;;;;10.00;6.15;;;16.20;99.90;;;;;;4953267;28;20027;-76
2023/06/14 02:07:55;;;;;;;12.43;6.10;;;16.20;99.90;;;;;;4936123;29;20126;-76
2023/06/14 02:10:21;;;;;;;13.82;7.03;;;16.20;99.90;;;;;;4953328;28;20490;-76
2023/06/14 02:12:48;;;;;;;13.52;6.55;;;16.10;99.90;;;;;;4953770;28;20051;-76
2023/06/14 02:15:16;;;;;;;11.65;6.95;;;15.90;99.90;;;;;;4953408;28;20033;-77
2023/06/14 02:17:49;;;;;;;13.32;6.40;;;15.80;99.90;;;;;;4936125;29;20097;-76
2023/06/14 02:20:16;;;;;;;10.93;6.72;;;15.90;99.90;;;;;;4936444;28;20031;-76
2023/06/14 02:22:42;;;;;;;11.35;6.07;;;15.90;99.90;;;;;;4953270;28;20102;-76
2023/06/14 02:25:08;;;;;;;12.77;6.45;;;16.00;99.90;;;;;;4953597;28;20106;-76
2023/06/14 02:27:35;;;;;;;12.27;6.93;;;16.00;99.90;;;;;;4953428;28;20027;-76
2023/06/14 02:30:03;;;;;;;11.95;6.82;;;15.90;99.90;;;;;;4939435;28;20031;-76
2023/06/14 02:32:34;;;;;;;12.48;6.38;;;16.00;99.90;;;;;;4939317;29;20031;-75
2023/06/14 02:34:59;;;;;;;17.17;6.95;;;15.90;99.90;;;;;;4939490;28;20050;-77
2023/06/14 02:37:25;;;;;;;13.57;7.35;;;16.00;99.90;;;;;;4946169;29;20043;-75
2023/06/14 02:39:52;;;;;;;16.45;7.75;;;16.00;99.90;;;;;;4951300;28;20468;-75
2023/06/14 02:42:18;;;;;;;13.30;7.57;;;15.90;99.90;;;;;;4929710;28;20035;-75
2023/06/14 02:44:46;;;;;;;17.42;9.18;;;15.80;99.90;;;;;;4948199;28;20431;-76
2023/06/14 02:47:12;;;;;;;13.23;7.90;;;15.80;99.90;;;;;;4944757;29;20086;-75
2023/06/14 02:49:38;;;;;;;13.13;7.65;;;15.80;99.90;;;;;;4935766;29;20031;-76
2023/06/14 02:52:04;;;;;;;16.92;7.97;;;15.80;99.90;;;;;;4936030;29;20027;-75
2023/06/14 02:54:30;;;;;;;16.90;8.32;;;15.70;99.90;;;;;;4927480;29;20151;-75
2023/06/14 02:56:58;;;;;;;18.80;9.65;;;15.80;99.90;;;;;;4934419;29;20495;-76
2023/06/14 02:59:25;;;;;;;14.32;8.63;;;15.70;99.90;;;;;;4936645;28;20078;-75
2023/06/14 03:01:52;;;;;;;13.90;8.68;;;15.50;99.90;;;;;;4927097;28;20024;-75
2023/06/14 03:04:18;;;;;;;15.18;7.97;;;15.60;99.90;;;;;;4935173;29;20031;-76
2023/06/14 03:06:50;;;;;;;16.67;8.82;;;15.60;99.90;;;;;;4934515;29;20252;-76
2023/06/14 03:09:17;;;;;;;;;;;15.60;99.90;;;;;;4927638;29;20450;-75
2023/06/14 03:11:43;;;;;;;15.75;8.30;;;15.60;99.90;;;;;;4933087;29;19918;-76
2023/06/14 03:14:11;;;;;;;14.40;8.15;;;15.60;99.90;;;;;;4920940;29;20023;-76
2023/06/14 03:16:37;;;;;;;13.93;8.88;;;15.60;99.90;;;;;;4929937;29;20095;-76
2023/06/14 03:19:04;;;;;;;16.25;8.43;;;15.60;99.90;;;;;;4927636;29;20438;-76
2023/06/14 03:21:32;;;;;;;13.82;8.73;;;15.60;99.90;;;;;;4930190;29;20019;-75
2023/06/14 03:24:00;;;;;;;15.85;8.90;;;15.60;99.90;;;;;;4933997;29;20392;-75
2023/06/14 03:26:27;;;;;;;16.67;9.35;;;15.60;99.90;;;;;;4927446;29;20026;-76
2023/06/14 03:28:55;;;;;;;17.60;9.07;;;15.60;99.90;;;;;;4933515;29;20039;-76
2023/06/14 03:31:23;;;;;;;14.48;9.23;;;15.60;99.90;;;;;;4934627;28;20546;-76
2023/06/14 03:33:50;;;;;;;14.35;9.15;;;15.50;99.90;;;;;;4918146;29;20074;-75
2023/06/14 03:36:17;;;;;;;15.20;7.93;;;15.50;99.90;;;;;;4925880;29;20502;-76
2023/06/14 03:38:43;;;;;;;15.55;8.70;;;15.60;99.90;;;;;;4931401;29;20043;-75
2023/06/14 03:41:10;;;;;;;15.65;8.65;;;15.70;99.90;;;;;;4926840;29;20111;-75
2023/06/14 03:43:37;;;;;;;14.75;8.55;;;16.10;99.90;;;;;;4931023;29;20044;-76
2023/06/14 03:46:03;;;;;;;14.30;7.38;;;16.50;99.90;;;;;;4936350;29;20023;-76
2023/06/14 03:48:31;;;;;;;13.05;7.38;;;17.00;99.90;;;;;;4934046;29;20505;-76
2023/06/14 03:50:58;;;;;;;16.95;7.97;;;17.40;99.90;;;;;;4932799;29;20039;-76
2023/06/14 03:53:24;;;;;;;14.30;6.93;;;17.60;99.90;;;;;;4938155;29;20027;-75
2023/06/14 03:55:54;;;;;;;13.75;7.45;;;17.90;99.90;;;;;;4954089;29;20027;-76
2023/06/14 03:58:23;;;;;;;13.88;7.32;;;18.40;99.90;;;;;;4953841;29;20114;-76
2023/06/14 04:00:49;;;;;;;11.70;6.72;;;18.70;99.90;;;;;;4941431;28;20020;-76
2023/06/14 04:03:15;;;;;;;11.32;7.25;;;19.20;99.90;;;;;;4938140;28;20113;-75
2023/06/14 04:05:42;;;;;;;14.52;7.80;;;19.70;99.90;;;;;;4954177;28;20426;-76
2023/06/14 04:08:09;;;;;;;12.35;6.93;;;19.60;99.90;;;;;;4949920;28;20086;-75
2023/06/14 04:10:36;;;;;;;20.77;7.18;;;19.50;99.90;;;;;;4955129;28;20070;-76
2023/06/14 04:13:02;;;;;;;12.68;7.32;;;18.70;99.90;;;;;;4921575;28;20451;-76
2023/06/14 04:15:28;;;;;;;15.38;7.88;;;18.60;99.90;;;;;;4953842;28;20114;-76
2023/06/14 04:17:58;;;;;;;13.60;7.35;;;18.20;99.90;;;;;;4931423;29;20039;-75
2023/06/14 04:20:25;;;;;;;18.10;7.88;;;18.00;99.90;;;;;;4934256;29;20094;-74
2023/06/14 04:22:52;;;;;;;13.48;7.57;;;17.80;99.90;;;;;;4935215;28;20035;-76
2023/06/14 04:25:18;;;;;;;13.75;8.00;;;17.70;99.90;;;;;;4954594;28;20031;-75
2023/06/14 04:27:44;;;;;;;12.70;8.00;;;17.10;99.90;;;;;;4954704;28;20533;-76
2023/06/14 04:30:11;;;;;;;14.63;8.25;;;17.40;99.90;;;;;;4937416;29;20034;-75
2023/06/14 04:32:42;;;;;;;13.93;8.02;;;17.40;99.90;;;;;;4937557;29;20019;-77
2023/06/14 04:35:11;;;;;;;13.88;8.05;;;17.20;99.90;;;;;;4937711;29;20491;-77
2023/06/14 04:37:41;;;;;;;17.23;8.23;;;17.30;99.90;;;;;;4953511;29;20047;-76
2023/06/14 04:40:08;;;;;;;14.23;8.55;;;17.20;99.90;;;;;;4952979;29;20031;-77
2023/06/14 04:42:36;;;;;;;13.00;7.65;;;17.30;99.90;;;;;;4950270;29;20033;-77
2023/06/14 04:45:04;;;;;;;17.30;8.25;;;17.30;99.90;;;;;;4940859;29;20031;-76
2023/06/14 04:47:30;;;;;;;14.45;7.97;;;17.30;99.90;;;;;;4937177;29;20027;-76
2023/06/14 04:49:57;;;;;;;17.17;8.27;;;17.30;99.90;;;;;;4954734;28;20027;-76
2023/06/14 04:52:26;;;;;;;13.00;7.28;;;17.30;99.90;;;;;;4920919;29;20118;-75
2023/06/14 04:54:54;;;;;;;15.70;8.43;;;17.40;99.90;;;;;;4933722;29;20551;-76
2023/06/14 04:57:21;;;;;;;16.85;8.93;;;17.30;99.90;;;;;;4949572;28;20046;-76
2023/06/14 04:59:54;;;;;;;16.45;8.30;;;17.30;99.90;;;;;;4927138;29;20118;-77
2023/06/14 05:02:23;;;;;;;18.08;8.75;;;17.00;99.90;;;;;;4942071;28;20557;-77
2023/06/14 05:04:48;;;;;;;13.27;8.00;;;16.90;99.90;;;;;;4953352;28;20114;-77
2023/06/14 05:07:15;;;;;;;13.02;7.65;;;16.80;99.90;;;;;;4936662;29;20391;-77
2023/06/14 05:09:41;;;;;;;16.23;9.00;;;17.30;99.90;;;;;;4933978;29;20555;-77
2023/06/14 05:12:07;;;;;;;12.23;7.57;;;17.80;99.90;;;;;;4940637;29;20037;-77
2023/06/14 05:14:34;;;;;;;14.25;8.23;;;18.20;99.90;;;;;;4953846;28;20031;-77
2023/06/14 05:17:00;;;;;;;14.48;7.47;;;18.40;99.90;;;;;;4936778;29;20038;-77
2023/06/14 05:19:26;;;;;;;12.73;7.50;;;18.70;99.90;;;;;;4953728;28;20081;-77
2023/06/14 05:21:53;;;;;;;15.75;7.00;;;18.70;99.90;;;;;;4953863;29;20085;-77
2023/06/14 05:24:19;;;;;;;15.23;7.57;;;18.90;99.90;;;;;;4953878;29;20475;-76
2023/06/14 05:26:45;;;;;;;13.02;7.60;;;18.80;99.90;;;;;;4953642;28;20068;-77
2023/06/14 05:29:11;;;;;;;12.90;7.70;;;18.80;99.90;;;;;;4953971;29;20463;-75
2023/06/14 05:31:37;;;;;;;18.88;7.93;;;18.70;99.90;;;;;;4953892;29;20114;-78
2023/06/14 05:34:04;;;;;;;12.45;7.50;;;18.80;99.90;;;;;;4954070;28;20427;-76
2023/06/14 05:36:30;;;;;;;13.30;7.43;;;18.80;99.90;;;;;;4953707;29;20023;-75
2023/06/14 05:38:59;;;;;;;19.75;6.68;;;18.80;99.90;;;;;;4936614;29;20424;-76
2023/06/14 05:41:25;;;;;;;11.60;7.32;;;18.80;99.90;;;;;;4953434;29;20089;-76
2023/06/14 05:43:52;;;;;;;16.05;7.00;;;18.80;99.90;;;;;;4953837;29;20126;-76
2023/06/14 05:46:22;;;;;;;15.02;7.35;;;18.90;99.90;;;;;;4953162;29;20667;-77
2023/06/14 05:48:48;;;;;;;13.45;7.18;;;19.10;99.90;;;;;;4953563;28;20019;-77
2023/06/14 05:51:18;;;;;;;13.80;7.10;;;19.20;99.90;;;;;;4953667;29;20027;-77
2023/06/14 05:53:46;;;;;;;12.05;6.22;;;18.80;99.90;;;;;;4953233;28;20027;-77
2023/06/14 05:56:12;;;;;;;11.80;6.38;;;19.20;99.90;;;;;;4952682;28;20066;-77
2023/06/14 05:58:38;;;;;;;13.93;7.03;;;19.10;99.90;;;;;;4953583;28;20044;-77
2023/06/14 06:01:04;;;;;;;13.00;6.82;;;19.10;99.90;;;;;;4953629;29;20016;-77
2023/06/14 06:03:29;;;;;;;13.20;6.93;;;19.30;99.90;;;;;;4953577;28;20145;-77
2023/06/14 06:05:55;;;;;;;19.20;8.10;;;19.50;99.90;;;;;;4953678;28;20467;-77
2023/06/14 06:08:21;;;;;;;12.07;7.43;;;19.50;99.90;;;;;;4953424;28;20051;-77
2023/06/14 06:10:47;;;;;;;14.18;7.28;;;19.50;99.90;;;;;;4953488;28;20485;-77
2023/06/14 06:13:13;;;;;;;10.48;6.45;;;19.80;99.90;;;;;;4953492;28;20035;-76
2023/06/14 06:15:39;;;;;;;9.88;6.03;;;20.00;99.90;;;;;;4953134;28;20023;-75
2023/06/14 06:18:05;;;;;;;9.40;5.15;;;20.00;99.90;;;;;;4957144;28;20114;-75
2023/06/14 06:20:31;;;;;;;9.30;5.55;;;19.90;99.90;;;;;;4956997;28;20063;-76
2023/06/14 06:22:58;;;;;;;12.52;6.15;;;20.20;99.90;;;;;;4957077;28;20030;-76
2023/06/14 06:25:25;;;;;;;8.30;5.13;;;20.40;99.90;;;;;;4960811;28;20015;-75
2023/06/14 06:27:52;;;;;;;9.30;5.40;;;20.60;99.90;;;;;;4965404;28;20082;-77
2023/06/14 06:30:19;;;;;;;8.05;5.50;;;21.00;99.90;;;;;;4956777;28;20046;-75
2023/06/14 06:32:45;;;;;;;9.15;4.38;;;20.90;99.90;;;;;;4956822;28;20038;-76
2023/06/14 06:35:12;;;;;;;12.10;5.07;;;21.20;99.90;;;;;;4956852;28;20103;-76
2023/06/14 06:37:40;;;;;;;9.80;5.03;;;21.80;99.90;;;;;;4938967;29;20039;-76
2023/06/14 06:40:07;;;;;;;6.97;3.75;;;;;;;;;;4956767;28;20066;-76
2023/06/14 06:42:33;;;;;;;7.40;3.65;;;22.60;99.90;;;;;;4959964;28;20031;-76
2023/06/14 06:45:03;;;;;;;7.47;3.90;;;23.00;99.90;;;;;;4941050;29;20024;-77
2023/06/14 06:47:29;;;;;;;7.65;3.63;;;23.40;99.90;;;;;;4953718;28;20035;-77
2023/06/14 06:49:55;;;;;;;6.30;4.30;;;23.30;99.90;;;;;;4956855;28;20023;-77
2023/06/14 06:52:20;;;;;;;7.18;3.45;;;23.70;99.90;;;;;;4938986;28;20046;-76
2023/06/14 06:54:46;;;;;;;6.47;3.85;;;23.90;99.90;;;;;;4956425;28;20022;-77
2023/06/14 06:57:13;;;;;;;4.28;2.70;;;;;;;;;;4956243;28;20027;-76
2023/06/14 06:59:39;;;;;;;7.05;3.65;;;23.90;99.90;;;;;;4956479;28;20182;-76
2023/06/14 07:02:05;;;;;;;7.00;3.47;;;23.80;99.90;;;;;;4956304;28;20106;-76
2023/06/14 07:04:31;;;;;;;5.88;3.72;;;23.30;99.90;;;;;;4956313;28;20494;-76
2023/06/14 07:06:57;;;;;;;5.93;3.35;;;23.00;99.90;;;;;;4953509;28;20027;-76
2023/06/14 07:09:24;;;;;;;5.95;2.92;;;22.90;99.90;;;;;;4954075;28;20047;-75
2023/06/14 07:11:50;;;;;;;7.03;3.78;;;22.80;99.90;;;;;;4955964;28;20114;-76
2023/06/14 07:14:16;;;;;;;5.50;2.90;;;22.70;99.80;;;;;;4956251;28;20110;-75
2023/06/14 07:16:42;;;;;;;9.77;3.50;;;22.80;99.90;;;;;;4956205;28;20437;-76
2023/06/14 07:19:10;;;;;;;8.73;3.15;;;22.60;99.80;;;;;;4955813;28;20024;-76
2023/06/14 07:21:38;;;;;;;5.20;3.08;;;22.80;99.90;;;;;;4955702;28;20027;-76
2023/06/14 07:24:06;;;;;;;5.65;3.17;;;22.80;99.90;;;;;;4956041;28;20122;-76
2023/06/14 07:26:32;;;;;;;5.00;2.67;;;22.70;99.90;;;;;;4955687;28;20028;-77
2023/06/14 07:28:58;;;;;;;4.25;2.40;;;22.70;99.30;;;;;;4955286;28;20045;-76
2023/06/14 07:31:23;;;;;;;9.52;3.17;;;22.50;98.90;;;;;;4955585;28;20061;-76
2023/06/14 07:33:49;;;;;;;7.05;3.22;;;22.50;98.30;;;;;;4955714;28;20024;-76
2023/06/14 07:36:15;;;;;;;7.47;2.70;;;22.60;99.80;;;;;;4955621;28;20024;-75
2023/06/14 07:38:41;;;;;;;6.93;2.78;;;22.50;97.50;;;;;;4955668;28;20479;-75
2023/06/14 07:41:07;;;;;;;5.93;2.67;;;22.60;97.10;;;;;;4955223;28;20071;-76
2023/06/14 07:43:33;;;;;;;4.30;2.55;;;22.60;96.50;;;;;;4956799;28;20034;-75
2023/06/14 07:45:59;;;;;;;6.45;2.83;;;22.60;95.60;;;;;;4944071;29;20027;-77
2023/06/14 07:48:24;;;;;;;4.85;2.72;;;22.80;97.70;;;;;;4955285;28;20391;-76
2023/06/14 07:50:50;;;;;;;4.63;2.88;;;23.00;98.00;;;;;;4955639;28;20062;-77
2023/06/14 07:53:16;;;;;;;4.53;2.72;;;23.30;97.80;;;;;;4955252;28;20047;-77
2023/06/14 07:55:43;;;;;;;5.38;2.67;;;23.60;96.70;;;;;;4955091;28;20097;-77
2023/06/14 07:58:10;;;;;;;4.65;2.85;;;23.80;96.30;;;;;;4954998;28;20073;-77
2023/06/14 08:00:36;;;;;;;6.15;2.47;;;24.30;95.20;;;;;;4955770;28;20030;-79
2023/06/14 08:03:02;;;;;;;7.60;2.65;;;24.40;93.10;;;;;;4955197;28;20364;-76
2023/06/14 08:05:28;;;;;;;8.00;2.30;;;24.60;95.30;;;;;;4955142;28;20114;-76
2023/06/14 08:07:55;;;;;;;5.10;2.78;;;24.00;92.30;;;;;;4953479;28;20551;-77
2023/06/14 08:10:22;;;;;;;5.05;2.65;;;24.10;93.70;;;;;;4954983;28;20023;-74
2023/06/14 08:12:51;;;;;;;4.50;2.63;;;24.50;94.50;;;;;;4955174;28;20090;-75
2023/06/14 08:15:17;;;;;;;5.95;2.50;;;24.20;91.20;;;;;;4954573;28;20031;-75
2023/06/14 08:17:43;;;;;;;4.38;2.38;;;24.00;92.60;;;;;;4954762;29;20098;-75
2023/06/14 08:20:10;;;;;;;5.95;3.25;;;23.80;93.30;;;;;;4954502;28;20039;-75
2023/06/14 08:22:37;;;;;;;5.45;2.28;;;23.60;92.30;;;;;;4955180;28;20034;-75
2023/06/14 08:25:03;;;;;;;3.83;2.47;;;23.50;93.40;;;;;;4954650;28;20379;-75
2023/06/14 08:27:30;;;;;;;6.93;2.47;;;23.40;92.60;;;;;;4954671;28;20182;-76
2023/06/14 08:29:57;;;;;;;5.90;2.72;;;23.40;93.40;;;;;;4954398;28;20490;-75
2023/06/14 08:32:23;;;;;;;5.40;3.10;;;23.40;94.00;;;;;;4955157;28;20035;-75
2023/06/14 08:34:49;;;;;;;5.15;2.30;;;23.70;94.20;;;;;;4954382;28;20042;-76
2023/06/14 08:37:15;;;;;;;8.70;3.33;;;23.80;95.20;;;;;;4954241;28;20122;-75
2023/06/14 08:39:41;;;;;;;5.63;3.00;;;23.80;93.10;;;;;;4953149;28;20119;-75
2023/06/14 08:42:08;;;;;;;3.80;2.83;;;23.90;94.80;;;;;;4954337;28;20031;-75
2023/06/14 08:44:35;;;;;;;4.82;2.80;;;23.60;93.50;;;;;;4954800;28;20050;-75
2023/06/14 08:47:00;;;;;;;7.72;2.90;;;23.50;92.60;;;;;;4954473;28;20098;-78
2023/06/14 08:49:27;;;;;;;6.90;3.50;;;23.60;94.80;;;;;;4954613;28;20539;-75
2023/06/14 08:51:58;;;;;;;4.57;2.45;;;23.70;93.80;;;;;;4954233;29;20015;-75
2023/06/14 08:54:34;;;;;;;5.95;2.95;;;23.90;91.50;;;;;;4951923;28;20035;-76
2023/06/14 08:57:00;;;;;;;7.25;3.45;;;24.00;93.10;;;;;;4954164;28;20027;-76
2023/06/14 08:59:26;;;;;;;5.57;2.95;;;24.50;93.90;;;;;;4954173;28;20489;-75
2023/06/14 09:01:54;;;;;;;5.60;2.55;;;24.60;93.20;;;;;;4954306;28;20037;-75
2023/06/14 09:04:21;;;;;;;5.05;2.78;;;24.60;91.30;;;;;;4953984;28;20079;-75
2023/06/14 09:06:54;;;;;;;4.88;2.25;;;24.50;90.30;;;;;;4954103;28;20019;-75
2023/06/14 09:09:24;;;;;;;5.10;2.42;;;24.70;91.60;;;;;;4953727;28;20043;-75
2023/06/14 09:11:52;;;;;;;5.80;2.40;;;24.80;91.30;;;;;;4953781;28;20106;-76
2023/06/14 09:14:19;;;;;;;3.22;2.22;;;24.80;91.20;;;;;;4954079;28;20483;-76
2023/06/14 09:16:45;;;;;;;2.72;1.88;;;25.10;89.70;;;;;;4953905;28;20026;-76
2023/06/14 09:19:24;;;;;;;3.70;2.45;;;25.20;89.00;;;;;;4953764;28;20040;-76
2023/06/14 09:21:52;;;;;;;6.28;2.33;;;25.00;90.10;;;;;;4953616;28;20554;-75
2023/06/14 09:24:18;;;;;;;5.43;2.38;;;24.80;89.20;;;;;;4953774;28;20063;-76
2023/06/14 09:26:47;;;;;;;5.90;2.80;;;24.50;89.80;;;;;;4953717;28;20051;-78
2023/06/14 09:29:13;;;;;;;5.85;2.60;;;24.10;85.70;;;;;;4953752;28;20378;-78
2023/06/14 09:31:39;;;;;;;6.53;2.95;;;24.10;89.80;;;;;;4952645;29;20023;-77
2023/06/14 09:34:05;;;;;;;4.72;2.60;;;23.90;89.30;;;;;;4953686;28;20103;-75
2023/06/14 09:36:32;;;;;;;4.13;2.30;;;23.90;89.10;;;;;;4953707;28;20067;-76
2023/06/14 09:39:00;;;;;;;2.45;2.03;;;23.90;90.10;;;;;;4938707;28;20574;-76
2023/06/14 09:41:37;;;;;;;3.63;2.63;;;23.80;90.20;;;;;;4936504;28;20035;-76
2023/06/14 09:44:04;;;;;;;4.47;2.10;;;23.80;91.70;;;;;;4936177;29;20039;-76
2023/06/14 09:46:31;;;;;;;4.10;2.47;;;23.90;91.20;;;;;;4953619;28;20023;-76
2023/06/14 09:49:00;;;;;;;8.63;3.00;;;23.90;90.90;;;;;;4953380;28;20456;-75
2023/06/14 09:51:27;;;;;;;4.95;2.67;;;23.90;87.80;;;;;;4954805;28;20494;-76
2023/06/14 09:53:55;;;;;;;6.07;2.10;;;23.90;90.20;;;;;;4957856;29;20043;-76
2023/06/14 09:56:29;;;;;;;6.00;2.22;;;23.50;86.10;;;;;;4956447;28;20039;-76
2023/06/14 09:58:58;;;;;;;5.68;2.00;;;23.70;85.80;;;;;;4957133;28;20036;-75
2023/06/14 10:01:29;;;;;;;4.05;2.47;;;24.00;87.80;;;;;;4957244;28;20062;-74
2023/06/14 10:04:00;;;;;;;7.82;2.63;;;24.00;86.20;;;;;;4956559;29;20027;-76
2023/06/14 10:06:28;;;;;;;8.95;2.42;;;24.00;86.50;;;;;;4956995;28;20028;-77
2023/06/14 10:08:59;;;;;;;4.82;2.45;;;24.10;84.70;;;;;;4957121;28;20130;-75
2023/06/14 10:11:26;;;;;;;14.02;2.78;;;24.40;85.60;;;;;;4956741;28;20062;-74
2023/06/14 10:13:54;;;;;;;4.57;2.47;;;24.60;86.10;;;;;;4969685;28;20050;-76
2023/06/14 10:16:28;;;;;;;2.67;1.98;;;24.60;85.70;;;;;;4953554;28;20471;-76
2023/06/14 10:19:08;;;;;;;4.63;2.47;;;24.40;84.90;;;;;;4956903;28;20042;-76
2023/06/14 10:21:46;;;;;;;6.07;2.13;;;24.50;84.70;;;;;;4956263;28;20031;-77
2023/06/14 10:24:16;;;;;;;8.48;2.58;;;24.40;85.10;;;;;;4945336;28;20027;-76
2023/06/14 10:26:52;;;;;;;2.90;2.40;;;24.70;85.20;;;;;;4939732;28;20031;-76
2023/06/14 10:29:18;;;;;;;5.50;2.45;;;24.70;83.20;;;;;;4956264;28;20089;-76
2023/06/14 10:31:45;;;;;;;6.13;2.95;;;24.50;84.20;;;;;;4956462;28;20051;-75
2023/06/14 10:34:22;;;;;;;4.85;2.72;;;24.20;81.70;;;;;;4956577;28;20035;-76
2023/06/14 10:37:07;;;;;;;3.28;2.00;;;24.30;85.20;;;;;;4944570;28;20031;-76
2023/06/14 10:39:42;;;;;;;3.92;2.40;;;24.10;83.90;;;;;;4956506;28;20027;-75
2023/06/14 10:42:09;;;;;;;3.13;2.47;;;24.10;82.40;;;;;;4956389;28;20035;-76
2023/06/14 10:44:55;;;;;;;3.28;2.20;;;23.80;82.80;;;;;;4956416;28;20038;-77
2023/06/14 10:47:24;;;;;;;4.15;2.08;;;23.80;83.90;;;;;;4938765;29;20399;-77
2023/06/14 10:49:55;;;;;;;6.07;2.25;;;23.90;82.10;;;;;;4955057;28;20525;-78
2023/06/14 10:52:27;;;;;;;4.10;2.40;;;23.80;83.10;;;;;;4956328;28;20031;-76
2023/06/14 10:55:08;;;;;;;6.63;3.20;;;23.70;82.50;;;;;;4948998;28;20037;-78
2023/06/14 10:57:36;;;;;;;8.65;3.47;;;23.90;84.90;;;;;;4956038;28;20135;-76
2023/06/14 11:00:12;;;;;;;4.85;2.53;;;24.00;83.00;;;;;;4938428;29;20078;-78
2023/06/14 11:02:59;;;;;;;8.48;2.92;;;23.90;82.30;;;;;;4952724;28;20031;-78
2023/06/14 11:05:27;;;;;;;4.32;2.65;;;23.90;83.50;;;;;;4955200;28;20050;-77
2023/06/14 11:08:08;;;;;;;8.68;3.20;;;23.90;82.70;;;;;;4956172;28;20058;-75
2023/06/14 11:10:41;;;;;;;6.18;3.38;;;23.80;82.20;;;;;;4939702;28;20031;-76
2023/06/14 11:13:08;;;;;;;8.40;2.92;;;24.00;83.60;;;;;;4956192;28;20039;-75
2023/06/14 11:15:36;;;;;;;8.63;3.15;;;24.20;85.20;;;;;;4956073;28;20054;-78
2023/06/14 11:18:04;;;;;;;18.33;2.97;;;24.20;83.20;;;;;;4955887;28;20082;-75
2023/06/14 11:20:35;;;;;;;4.47;2.58;;;24.10;82.10;;;;;;4956186;28;20104;-78
2023/06/14 11:23:01;;;;;;;6.32;2.90;;;24.20;81.40;;;;;;4955326;28;20032;-77
2023/06/14 11:25:30;;;;;;;5.47;2.30;;;24.30;86.10;;;;;;4955682;28;20055;-77
2023/06/14 11:27:57;;;;;;;6.40;2.63;;;24.40;84.20;;;;;;4955570;28;20470;-77
2023/06/14 11:30:23;;;;;;;6.82;2.92;;;24.30;84.00;;;;;;4955198;28;20388;-77
2023/06/14 11:32:51;;;;;;;7.43;2.83;;;24.20;82.20;;;;;;4957225;28;20098;-77
2023/06/14 11:35:18;;;;;;;4.20;2.55;;;24.50;84.20;;;;;;4954545;28;20122;-77
2023/06/14 11:37:44;;;;;;;4.30;2.50;;;24.20;83.60;;;;;;4955528;28;20047;-77
2023/06/14 11:40:11;;;;;;;4.43;2.45;;;23.80;82.40;;;;;;4954372;29;20078;-77
2023/06/14 11:42:40;;;;;;;6.43;3.08;;;24.20;84.00;;;;;;4955430;28;20098;-77
2023/06/14 11:45:10;;;;;;;5.85;2.92;;;24.30;83.50;;;;;;4954870;29;20427;-76
2023/06/14 11:47:38;;;;;;;8.18;2.65;;;24.30;84.40;;;;;;4955198;28;20123;-77
2023/06/14 11:50:05;;;;;;;3.53;2.70;;;24.30;83.70;;;;;;4942295;28;20035;-77
2023/06/14 11:52:31;;;;;;;6.43;3.45;;;24.20;84.80;;;;;;4954780;28;20086;-77
2023/06/14 11:54:58;;;;;;;6.10;2.97;;;24.10;83.40;;;;;;4957686;28;20031;-75
2023/06/14 11:57:25;;;;;;;5.03;2.92;;;23.90;83.70;;;;;;4960715;28;20550;-78
2023/06/14 11:59:51;;;;;;;6.03;3.38;;;24.30;86.20;;;;;;4955305;28;20020;-78
2023/06/14 12:02:19;;;;;;;5.30;3.25;;;24.50;84.20;;;;;;4954841;28;20061;-77
2023/06/14 12:04:50;;;;;;;6.22;3.15;;;24.50;83.90;;;;;;4954392;28;20019;-78
2023/06/14 12:07:19;;;;;;;8.45;3.47;;;24.50;84.80;;;;;;4954603;28;20050;-77
2023/06/14 12:09:54;;;;;;;4.35;2.70;;;24.70;85.10;;;;;;4954875;28;20067;-77
2023/06/14 12:12:26;;;;;;;5.72;3.17;;;24.50;83.20;;;;;;4954744;28;20118;-77
2023/06/14 12:14:53;;;;;;;8.00;3.50;;;24.80;86.00;;;;;;4954277;28;20490;-78
2023/06/14 12:17:19;;;;;;;6.57;3.20;;;24.90;82.70;;;;;;4954734;28;20038;-78
2023/06/14 12:19:46;;;;;;;4.15;2.60;;;25.00;83.60;;;;;;4953741;29;20325;-77
2023/06/14 12:22:14;;;;;;;5.65;2.90;;;24.70;83.60;;;;;;4955182;28;20062;-76
2023/06/14 12:24:43;;;;;;;7.00;2.50;;;24.70;83.40;;;;;;4935841;29;20104;-77
2023/06/14 12:27:09;;;;;;;5.78;2.70;;;24.90;85.50;;;;;;4934513;29;20515;-78
2023/06/14 12:29:35;;;;;;;7.40;2.88;;;25.00;83.40;;;;;;4933546;29;20093;-77
2023/06/14 12:32:02;;;;;;;3.72;2.33;;;25.20;85.70;;;;;;4932882;29;20028;-77
2023/06/14 12:34:27;;;;;;;6.13;3.60;;;25.10;83.30;;;;;;4937245;29;20038;-76
2023/06/14 12:36:54;;;;;;;5.90;2.70;;;24.80;81.70;;;;;;4933145;28;20028;-76
2023/06/14 12:39:20;;;;;;;4.45;2.53;;;24.60;82.40;;;;;;4933812;29;20044;-77
2023/06/14 12:41:46;;;;;;;5.95;3.00;;;24.20;83.40;;;;;;4947954;29;20110;-78
2023/06/14 12:44:13;;;;;;;7.32;3.05;;;24.50;86.80;;;;;;4954452;29;20076;-77
2023/06/14 12:46:40;;;;;;;6.80;3.45;;;24.20;83.10;;;;;;4954028;28;20074;-77
2023/06/14 12:49:07;;;;;;;5.22;2.70;;;24.30;85.60;;;;;;4954469;29;20039;-77
2023/06/14 12:51:33;;;;;;;4.45;2.53;;;24.50;86.20;;;;;;4954275;28;20030;-77